Flight Track Log - Related Links

Times and Time Zones

All times are in EDT time to prevent confusion due to time zone crossing. See the N1484B flight status page for this flight to view local times or setup timezone preferences in your user account.

Time Position Orientation Groundspeed Altitude Reporting Facility
EDT Latitude Longitude Course Direction KTS MPH feet Rate Location/Type
Thu 11:03:00 PM 33.8167 -118.1833 220° Southwest 75 86 600  Level Southern California TRACON
Thu 11:04:00 PM 33.8000 -118.2000 220° Southwest 83 96 1,200 550 Climbing Southern California TRACON
Thu 11:05:00 PM 33.7833 -118.2167 220° Southwest 98 113 1,700 545 Climbing Southern California TRACON
Thu 11:06:12 PM 33.7775 -118.1861 103° East 86 99 2,400 537 Climbing Los Angeles Center
Thu 11:07:14 PM 33.7739 -118.1628 101° East 72 83 2,900 537 Climbing Los Angeles Center
Thu 11:08:15 PM 33.7744 -118.1353 89° East 69 79 3,500 566 Climbing Los Angeles Center
Thu 11:09:00 PM 33.7667 -118.1167 117° Southeast 75 86 3,900 457 Climbing Southern California TRACON
Thu 11:10:00 PM 33.7500 -118.1167 180° South 88 101 4,300 350 Climbing Southern California TRACON
Thu 11:11:00 PM 33.7333 -118.1333 220° Southwest 73 84 4,600 300 Climbing Southern California TRACON
Thu 11:12:00 PM 33.7500 -118.1167 40° Northeast 73 84 4,900 350 Climbing Southern California TRACON
Thu 11:13:00 PM 33.7500 -118.1000 90° East 80 92 5,300 350 Climbing Southern California TRACON
Thu 11:14:00 PM 33.7667 -118.0667 59° Northeast 77 89 5,600 350 Climbing Southern California TRACON
Thu 11:15:00 PM 33.7833 -118.0500 40° Northeast 87 100 6,000 381 Climbing Southern California TRACON
Thu 11:16:06 PM 33.7667 -118.0167 121° Southeast 98 113 6,400 350 Climbing Southern California TRACON
Thu 11:17:00 PM 33.7833 -117.9833 59° Northeast 113 130 6,700 300 Climbing Southern California TRACON
Thu 11:18:06 PM 33.7667 -117.9500 121° Southeast 84 97 7,000 350 Climbing Southern California TRACON
Thu 11:19:00 PM 33.7667 -117.9333 90° East 90 104 7,400 368 Climbing Southern California TRACON
Thu 11:20:00 PM 33.7833 -117.9000 59° Northeast 92 106 7,700 248 Climbing Southern California TRACON
Thu 11:21:01 PM 33.7667 -117.8667 121° Southeast 95 109 7,900 198 Climbing Southern California TRACON
Thu 11:22:01 PM 33.7667 -117.8333 90° East 97 112 8,100 286 Climbing Southern California TRACON
Thu 11:23:07 PM 33.7667 -117.8000 90° East 93 107 8,500 300 Climbing Southern California TRACON
Thu 11:24:01 PM 33.7667 -117.7667 90° East 98 113 8,700 248 Climbing Southern California TRACON
Thu 11:25:08 PM 33.7667 -117.7333 90° East 98 113 9,000 236 Climbing Southern California TRACON
Thu 11:26:08 PM 33.7500 -117.7000 121° Southeast 100 115 9,200 250 Climbing Southern California TRACON
Thu 11:27:08 PM 33.7500 -117.6667 90° East 99 114 9,500 250 Climbing Southern California TRACON
Thu 11:28:08 PM 33.7500 -117.6333 90° East 93 107 9,700 159 Climbing Southern California TRACON
Thu 11:29:01 PM 33.7486 -117.6158 95° East 96 110 9,800 157 Climbing Los Angeles Center
Thu 11:30:03 PM 33.7450 -117.5750 96° East 102 117 10,000 195 Climbing Los Angeles Center
Thu 11:31:04 PM 33.7425 -117.5475 96° East 103 119 10,200 195 Climbing Los Angeles Center
Thu 11:32:06 PM 33.7381 -117.5072 98° East 102 117 10,400 194 Climbing Los Angeles Center
Thu 11:33:08 PM 33.7361 -117.4736 94° East 100 115 10,600 146 Climbing Los Angeles Center
Thu 11:34:09 PM 33.7342 -117.4411 94° East 99 114 10,700 98 Climbing Los Angeles Center
Thu 11:35:11 PM 33.7306 -117.4075 97° East 102 117 10,800 97 Climbing Los Angeles Center
Thu 11:36:13 PM 33.7289 -117.3736 93° East 100 115 10,900 98 Climbing Los Angeles Center
Thu 11:37:14 PM 33.7258 -117.3392 96° East 104 120 11,000 49 Climbing Los Angeles Center
Thu 11:38:16 PM 33.7206 -117.2883 97° East 128 147 11,000  Level Los Angeles Center
Thu 11:39:18 PM 33.7164 -117.2442 96° East 133 153 11,000  Level Los Angeles Center
Thu 11:40:19 PM 33.7111 -117.2008 98° East 133 153 11,000  Level Los Angeles Center
Thu 11:41:20 PM 33.7078 -117.1642 96° East 136 157 11,000 -49 Level Los Angeles Center
Thu 11:42:22 PM 33.7033 -117.1122 96° East 131 151 10,900 -48 Descending Los Angeles Center
Thu 11:43:24 PM 33.7022 -117.0717 92° East 124 143 10,900  Level Los Angeles Center
Thu 11:44:25 PM 33.7042 -117.0289 87° East 129 148 10,900 98 Level Los Angeles Center
Thu 11:45:27 PM 33.7011 -116.9792 94° East 125 144 11,100 97 Climbing Los Angeles Center
Thu 11:46:29 PM 33.6972 -116.9378 96° East 125 144 11,100  Level Los Angeles Center
Thu 11:47:42 PM 33.6928 -116.8942 97° East 132 152 11,100 -44 Level Los Angeles Center
Thu 11:48:44 PM 33.6881 -116.8433 96° East 134 154 11,000 -48 Descending Los Angeles Center
Thu 11:49:46 PM 33.6858 -116.7983 93° East 135 155 11,000  Level Los Angeles Center
Thu 11:50:47 PM 33.6817 -116.7539 96° East 134 154 11,000  Level Los Angeles Center
Thu 11:51:49 PM 33.6778 -116.7019 95° East 131 151 11,000  Level Los Angeles Center
Thu 11:52:50 PM 33.6742 -116.6583 96° East 131 151 11,000  Level Los Angeles Center
Thu 11:53:52 PM 33.6697 -116.6147 97° East 131 151 11,000  Level Los Angeles Center
Thu 11:54:53 PM 33.6675 -116.5781 94° East 133 153 11,000  Level Los Angeles Center
Thu 11:55:55 PM 33.6619 -116.5228 97° East 136 157 11,000  Level Los Angeles Center
Thu 11:56:57 PM 33.6589 -116.4772 95° East 137 158 11,000 -49 Level Los Angeles Center
Thu 11:57:58 PM 33.6544 -116.4322 97° East 137 158 10,900 -44 Descending Los Angeles Center
Thu 11:59:12 PM 33.6503 -116.3861 96° East 137 158 10,900  Level Los Angeles Center
Fri 12:00:14 AM 33.6442 -116.3233 97° East 137 158 10,900  Level Los Angeles Center
Fri 12:01:16 AM 33.6408 -116.2775 95° East 137 158 10,900  Level Los Angeles Center
Fri 12:02:17 AM 33.6375 -116.2406 96° East 137 158 10,900  Level Los Angeles Center
Fri 12:03:18 AM 33.6322 -116.1853 97° East 139 160 10,900  Level Los Angeles Center
Fri 12:04:20 AM 33.6408 -116.1492 74° East 130 150 10,900  Level Los Angeles Center
Fri 12:05:21 AM 33.6689 -116.1294 30° Northeast 120 138 10,900  Level Los Angeles Center
Fri 12:06:23 AM 33.6894 -116.1000 50° Northeast 116 133 10,900  Level Los Angeles Center
Fri 12:07:24 AM 33.7108 -116.0678 51° Northeast 118 136 10,900  Level Los Angeles Center
Fri 12:08:26 AM 33.7378 -116.0281 51° Northeast 125 144 10,900  Level Los Angeles Center
Fri 12:09:27 AM 33.7583 -115.9972 51° Northeast 122 140 10,900  Level Los Angeles Center
Fri 12:10:29 AM 33.7794 -115.9647 52° Northeast 122 140 10,900  Level Los Angeles Center
Fri 12:11:30 AM 33.8008 -115.9333 51° Northeast 122 140 10,900  Level Los Angeles Center
Fri 12:12:32 AM 33.8242 -115.9008 49° Northeast 125 144 10,900  Level Los Angeles Center
Fri 12:13:33 AM 33.8442 -115.8711 51° Northeast 120 138 10,900  Level Los Angeles Center
Fri 12:14:35 AM 33.8639 -115.8411 52° Northeast 116 133 10,900  Level Los Angeles Center
Fri 12:15:36 AM 33.8869 -115.8075 50° Northeast 122 140 10,900  Level Los Angeles Center
Fri 12:16:38 AM 33.9122 -115.7681 52° Northeast 125 144 10,900  Level Los Angeles Center
Fri 12:17:39 AM 33.9258 -115.7467 53° Northeast 115 132 10,900  Level Los Angeles Center
Fri 12:18:41 AM 33.9511 -115.7097 50° Northeast 115 132 10,900  Level Los Angeles Center
Fri 12:19:42 AM 33.9769 -115.6744 49° Northeast 128 147 10,900  Level Los Angeles Center
Fri 12:20:43 AM 33.9981 -115.6406 53° Northeast 130 150 10,900  Level Los Angeles Center
Fri 12:21:45 AM 34.0181 -115.6092 52° Northeast 124 143 10,900  Level Los Angeles Center
Fri 12:22:46 AM 34.0392 -115.5783 50° Northeast 121 139 10,900  Level Los Angeles Center
Fri 12:23:48 AM 34.0622 -115.5444 51° Northeast 126 145 10,900  Level Los Angeles Center
Fri 12:24:49 AM 34.0856 -115.5114 50° Northeast 129 148 10,900  Level Los Angeles Center
Fri 12:25:50 AM 34.1147 -115.4675 51° Northeast 138 159 10,900  Level Los Angeles Center
Fri 12:26:52 AM 34.1403 -115.4292 51° Northeast 143 165 10,900  Level Los Angeles Center
Fri 12:27:53 AM 34.1622 -115.3936 53° Northeast 139 160 10,900  Level Los Angeles Center
Fri 12:28:55 AM 34.1850 -115.3608 50° Northeast 130 150 10,900  Level Los Angeles Center
Fri 12:29:56 AM 34.2061 -115.3264 53° Northeast 128 147 10,900  Level Los Angeles Center
Fri 12:31:10 AM 34.2325 -115.2875 51° Northeast 126 145 10,900  Level Los Angeles Center
Fri 12:32:11 AM 34.2550 -115.2558 49° Northeast 126 145 10,900 98 Level Los Angeles Center
Fri 12:33:12 AM 34.2769 -115.2217 52° Northeast 127 146 11,100 98 Climbing Los Angeles Center
Fri 12:34:14 AM 34.2986 -115.1869 53° Northeast 128 147 11,100  Level Los Angeles Center
Fri 12:35:15 AM 34.3256 -115.1472 51° Northeast 128 147 11,100  Level Los Angeles Center
Fri 12:36:16 AM 34.3486 -115.1142 50° Northeast 128 147 11,100 -49 Level Los Angeles Center
Fri 12:37:18 AM 34.3653 -115.0753 63° Northeast 127 146 11,000 -49 Descending Los Angeles Center
Fri 12:38:19 AM 34.3803 -115.0342 66° East 131 151 11,000 49 Level Los Angeles Center
Fri 12:39:20 AM 34.3950 -114.9928 67° East 130 150 11,100 49 Climbing Los Angeles Center
Fri 12:40:22 AM 34.4094 -114.9506 67° East 133 153 11,100  Level Los Angeles Center
Fri 12:41:23 AM 34.4242 -114.9100 66° East 133 153 11,100  Level Los Angeles Center
Fri 12:42:24 AM 34.4392 -114.8689 66° East 133 153 11,100  Level Los Angeles Center
Fri 12:43:26 AM 34.4536 -114.8269 67° East 134 154 11,100  Level Los Angeles Center
Fri 12:44:27 AM 34.4683 -114.7856 67° East 134 154 11,100  Level Los Angeles Center
Fri 12:45:28 AM 34.4822 -114.7456 67° East 131 151 11,100  Level Los Angeles Center
Fri 12:46:29 AM 34.4983 -114.7003 67° East 125 144 11,100  Level Los Angeles Center
Fri 12:47:30 AM 34.5142 -114.6583 65° Northeast 132 152 11,100  Level Los Angeles Center
Fri 12:48:32 AM 34.5294 -114.6150 67° East 138 159 11,100  Level Los Angeles Center
Fri 12:49:33 AM 34.5450 -114.5708 67° East 142 163 11,100  Level Los Angeles Center
Fri 12:50:34 AM 34.5600 -114.5283 67° East 139 160 11,100  Level Los Angeles Center
Fri 12:51:35 AM 34.5736 -114.4867 68° East 136 157 11,100 -49 Level Los Angeles Center
Fri 12:52:36 AM 34.5894 -114.4450 65° Northeast 136 157 11,000 -49 Descending Los Angeles Center
Fri 12:53:37 AM 34.6039 -114.4047 66° East 132 152 11,000 49 Level Los Angeles Center
Fri 12:54:39 AM 34.6172 -114.3650 68° East 129 148 11,100 49 Climbing Los Angeles Center
Fri 12:55:40 AM 34.6311 -114.3244 67° East 130 150 11,100 -49 Level Los Angeles Center
Fri 12:56:41 AM 34.6425 -114.2919 67° East 131 151 11,000  Descending Los Angeles Center
Fri 12:57:42 AM 34.6619 -114.2336 68° East 132 152 11,100 49 Climbing Los Angeles Center
Fri 12:58:43 AM 34.6761 -114.1931 67° East 131 151 11,100  Level Los Angeles Center
Fri 12:59:44 AM 34.6908 -114.1500 67° East 137 158 11,100  Level Los Angeles Center
Fri 01:00:45 AM 34.7069 -114.1056 66° East 142 163 11,100  Level Los Angeles Center
Fri 01:01:46 AM 34.7217 -114.0642 67° East 135 155 11,100  Level Los Angeles Center
Fri 01:02:47 AM 34.7344 -114.0233 69° East 130 150 11,100  Level Los Angeles Center
Fri 01:03:49 AM 34.7492 -113.9811 67° East 133 153 11,100  Level Los Angeles Center
Fri 01:04:50 AM 34.7544 -113.9358 82° East 134 154 11,100  Level Los Angeles Center
Fri 01:05:51 AM 34.7519 -113.8894 94° East 138 159 11,100  Level Los Angeles Center
Fri 01:06:45 AM 34.7511 -113.8519 92° East 138 159 11,100  Level Albuquerque Center
Fri 01:07:46 AM 34.7494 -113.7978 92° East 136 157 11,100  Level Albuquerque Center
Fri 01:08:47 AM 34.7478 -113.7542 93° East 132 152 11,100  Level Albuquerque Center
Fri 01:09:47 AM 34.7467 -113.7128 92° East 125 144 11,100  Level Albuquerque Center
Fri 01:10:48 AM 34.7461 -113.6689 91° East 128 147 11,100  Level Albuquerque Center
Fri 01:11:49 AM 34.7447 -113.6233 92° East 133 153 11,100  Level Albuquerque Center
Fri 01:12:49 AM 34.7444 -113.5792 90° East 133 153 11,100 -99 Level Albuquerque Center
Fri 01:13:50 AM 34.7428 -113.5328 92° East 135 155 10,900 -98 Descending Albuquerque Center
Fri 01:14:51 AM 34.7414 -113.4883 92° East 135 155 10,900  Level Albuquerque Center
Fri 01:15:51 AM 34.7394 -113.4458 93° East 131 151 10,900  Level Albuquerque Center
Fri 01:16:52 AM 34.7383 -113.4036 92° East 129 148 10,900  Level Albuquerque Center
Fri 01:17:53 AM 34.7369 -113.3611 92° East 128 147 10,900  Level Albuquerque Center
Fri 01:18:53 AM 34.7350 -113.3189 93° East 127 146 10,900  Level Albuquerque Center
Fri 01:19:54 AM 34.7336 -113.2708 92° East 123 142 10,900  Level Albuquerque Center
Fri 01:20:55 AM 34.7314 -113.2317 94° East 120 138 10,900  Level Albuquerque Center
Fri 01:21:55 AM 34.7300 -113.1894 92° East 121 139 10,900  Level Albuquerque Center
Fri 01:22:56 AM 34.7278 -113.1428 93° East 132 152 10,900  Level Albuquerque Center
Fri 01:23:57 AM 34.7281 -113.1000 90° East 129 148 10,900  Level Albuquerque Center
Fri 01:24:57 AM 34.7250 -113.0569 95° East 129 148 10,900  Level Albuquerque Center
Fri 01:25:58 AM 34.7250 -113.0139 90° East 128 147 10,900  Level Albuquerque Center
Fri 01:26:58 AM 34.7225 -112.9697 94° East 130 150 10,900  Level Albuquerque Center
Fri 01:27:59 AM 34.7203 -112.9275 94° East 128 147 10,900  Level Albuquerque Center
Fri 01:29:00 AM 34.7186 -112.8847 93° East 127 146 10,900  Level Albuquerque Center
Fri 01:30:00 AM 34.7175 -112.8433 92° East 125 144 10,900  Level Albuquerque Center
Fri 01:31:01 AM 34.7156 -112.8022 93° East 123 142 10,900  Level Albuquerque Center
Fri 01:32:02 AM 34.7133 -112.7517 93° East 124 143 10,900  Level Albuquerque Center
Fri 01:33:02 AM 34.7122 -112.7097 92° East 125 144 10,900  Level Albuquerque Center
Fri 01:34:03 AM 34.7106 -112.6669 93° East 127 146 10,900  Level Albuquerque Center

Login

Don't have an account? Register now (free) for customized features, flight alerts, and more!